Time;durP1;ratioP1;P1;durP2;ratioP2;P2;SDS_P1;SDS_P2;PMS_P1;PMS_P2;Temp;Humidity;BMP_temperature;BMP_pressure;BME280_temperature;BME280_humidity;BME280_pressure;Samples;Min_cycle;Max_cycle;Signal;HPM_P1;HPM_P2
2023/06/19 00:02:01;;;;;;;23.55;22.35;;;26.30;48.50;;;;;;4992796;28;20823;-87
2023/06/19 00:04:28;;;;;;;22.25;21.05;;;26.10;50.10;;;;;;4993449;28;20367;-87
2023/06/19 00:06:54;;;;;;;19.58;18.58;;;26.00;49.60;;;;;;4993758;28;20186;-86
2023/06/19 00:09:20;;;;;;;18.58;17.50;;;25.80;50.10;;;;;;4993268;28;20192;-87
2023/06/19 00:11:45;;;;;;;16.00;15.02;;;25.50;50.70;;;;;;4993428;28;20229;-85
2023/06/19 00:14:11;;;;;;;15.82;14.57;;;25.10;51.80;;;;;;4992554;28;20182;-86
2023/06/19 00:16:37;;;;;;;13.88;12.90;;;24.80;52.90;;;;;;4993022;28;20187;-86
2023/06/19 00:19:03;;;;;;;13.93;12.95;;;24.60;53.60;;;;;;4992971;28;20189;-87
2023/06/19 00:21:29;;;;;;;13.55;12.63;;;24.40;54.80;;;;;;4993152;28;20190;-86
2023/06/19 00:23:55;;;;;;;12.77;11.85;;;24.20;55.20;;;;;;4993812;28;20682;-87
2023/06/19 00:26:24;;;;;;;12.85;11.90;;;23.90;55.70;;;;;;4991834;28;20539;-84
2023/06/19 00:28:51;;;;;;;18.13;11.07;;;23.90;56.10;;;;;;4993087;28;20181;-86
2023/06/19 00:31:16;;;;;;;11.07;10.13;;;23.80;55.90;;;;;;4990521;28;20644;-88
2023/06/19 00:33:44;;;;;;;16.75;9.50;;;23.70;55.40;;;;;;4988257;28;20198;-85
2023/06/19 00:36:13;;;;;;;9.80;8.80;;;23.70;55.90;;;;;;4989347;28;20965;-85
2023/06/19 00:38:39;;;;;;;9.70;9.02;;;23.70;56.90;;;;;;4989063;28;20265;-86
2023/06/19 00:41:05;;;;;;;9.35;8.75;;;23.60;57.50;;;;;;4993003;28;20221;-86
2023/06/19 00:43:31;;;;;;;11.18;9.20;;;23.50;57.70;;;;;;4993402;28;20288;-86
2023/06/19 00:45:58;;;;;;;10.63;9.63;;;23.50;58.10;;;;;;4993151;28;20230;-85
2023/06/19 00:48:24;;;;;;;10.20;9.45;;;23.50;59.00;;;;;;4993372;28;20551;-86
2023/06/19 00:50:50;;;;;;;10.00;9.30;;;23.40;58.20;;;;;;4993526;28;20179;-86
2023/06/19 00:53:18;;;;;;;9.50;8.80;;;23.40;58.90;;;;;;4993247;28;20201;-86
2023/06/19 00:55:45;;;;;;;193.25;27.27;;;23.30;59.30;;;;;;4994081;28;20206;-87
2023/06/19 00:58:11;;;;;;;9.07;8.38;;;23.30;59.40;;;;;;4993528;28;20202;-86
2023/06/19 01:00:37;;;;;;;8.70;7.97;;;23.30;59.70;;;;;;4993492;28;20200;-87
2023/06/19 01:03:03;;;;;;;8.25;7.55;;;23.30;59.80;;;;;;4993228;28;20702;-86
2023/06/19 01:05:30;;;;;;;7.75;7.18;;;23.30;60.30;;;;;;4993198;28;20273;-85
2023/06/19 01:08:32;;;;;;;6.95;6.47;;;23.20;61.00;;;;;;4986412;28;20719;-86
2023/06/19 01:11:02;;;;;;;6.60;6.10;;;23.10;62.60;;;;;;4974144;28;20171;-85
2023/06/19 01:13:41;;;;;;;6.70;6.20;;;23.00;63.30;;;;;;4990300;28;20213;-84
2023/06/19 01:16:07;;;;;;;7.07;6.43;;;22.90;64.30;;;;;;4992517;28;20222;-87
2023/06/19 01:18:34;;;;;;;6.63;6.13;;;22.80;65.40;;;;;;4993008;28;20177;-86
2023/06/19 01:21:13;;;;;;;6.35;5.95;;;22.70;67.00;;;;;;4991606;28;20170;-86
2023/06/19 01:23:40;;;;;;;6.90;6.40;;;22.50;71.00;;;;;;4989785;28;20240;-85
2023/06/19 01:26:07;;;;;;;7.53;6.97;;;22.40;73.00;;;;;;4991072;28;20570;-86
2023/06/19 01:28:33;;;;;;;7.25;6.68;;;22.30;74.10;;;;;;4985940;28;20215;-86
2023/06/19 01:31:01;;;;;;;6.88;6.38;;;22.10;75.20;;;;;;4985785;28;20183;-88
2023/06/19 01:33:30;;;;;;;7.15;6.55;;;22.00;78.50;;;;;;4987021;28;20566;-84
2023/06/19 01:35:57;;;;;;;8.25;6.80;;;21.90;80.60;;;;;;4986574;28;20204;-85
2023/06/19 01:38:26;;;;;;;6.82;6.13;;;21.90;83.10;;;;;;4988120;28;20199;-86
2023/06/19 01:40:54;;;;;;;6.95;6.35;;;21.80;83.20;;;;;;4991853;28;20183;-88
2023/06/19 01:43:21;;;;;;;7.60;6.85;;;21.80;84.30;;;;;;4992386;28;20263;-85
2023/06/19 01:45:47;;;;;;;6.97;6.35;;;21.60;85.30;;;;;;4992893;28;20784;-87
2023/06/19 01:48:14;;;;;;;6.32;5.90;;;21.70;86.00;;;;;;4992540;28;20181;-87
2023/06/19 01:50:41;;;;;;;7.10;6.40;;;21.70;85.90;;;;;;4992107;28;20220;-87
2023/06/19 01:53:07;;;;;;;6.88;6.38;;;21.60;86.30;;;;;;4992748;28;20277;-86
2023/06/19 01:55:32;;;;;;;6.93;6.43;;;21.60;86.40;;;;;;4993848;28;20217;-85
2023/06/19 01:57:58;;;;;;;6.15;5.72;;;21.60;86.80;;;;;;4992743;28;20232;-86
2023/06/19 02:00:23;;;;;;;6.63;6.03;;;21.60;87.00;;;;;;4996057;28;20216;-87
2023/06/19 02:02:49;;;;;;;6.25;5.70;;;21.50;87.30;;;;;;4999667;28;20197;-89
2023/06/19 02:05:15;;;;;;;6.15;5.63;;;21.50;87.40;;;;;;4996603;28;20195;-87
2023/06/19 02:07:41;;;;;;;5.50;5.10;;;21.60;87.30;;;;;;4992783;28;20181;-86
2023/06/19 02:10:08;;;;;;;5.90;5.50;;;21.60;86.10;;;;;;4977478;28;20688;-86
2023/06/19 02:12:33;;;;;;;6.13;5.47;;;21.50;87.00;;;;;;4976207;28;20204;-87
2023/06/19 02:14:59;;;;;;;6.07;5.57;;;21.50;86.50;;;;;;4976971;28;20218;-89
2023/06/19 02:17:25;;;;;;;6.25;5.85;;;21.50;85.50;;;;;;4976665;28;20225;-85
2023/06/19 02:19:50;;;;;;;6.13;5.72;;;21.50;85.40;;;;;;4979945;28;20180;-86
2023/06/19 02:22:18;;;;;;;6.35;5.85;;;21.50;85.70;;;;;;4995680;28;20710;-86
2023/06/19 02:24:45;;;;;;;5.68;5.30;;;21.60;86.00;;;;;;4992600;28;20196;-86
2023/06/19 02:27:13;;;;;;;6.13;5.60;;;21.60;84.80;;;;;;4993141;28;20231;-86
2023/06/19 02:29:39;;;;;;;5.90;5.50;;;21.60;84.30;;;;;;4991461;28;20233;-86
2023/06/19 02:32:05;;;;;;;6.25;5.85;;;21.70;84.70;;;;;;4991712;28;20233;-85
2023/06/19 02:34:30;;;;;;;6.03;5.55;;;21.60;85.00;;;;;;4990088;28;20214;-87
2023/06/19 02:36:56;;;;;;;6.47;6.03;;;21.50;83.30;;;;;;4990186;28;20190;-85
2023/06/19 02:39:22;;;;;;;6.47;6.05;;;21.50;84.20;;;;;;4992503;28;20206;-83
2023/06/19 02:41:48;;;;;;;5.93;5.53;;;21.50;84.60;;;;;;4995725;28;20342;-86
2023/06/19 02:44:14;;;;;;;6.72;6.22;;;21.40;83.20;;;;;;4995125;28;20176;-85
2023/06/19 02:46:40;;;;;;;5.90;5.50;;;21.40;82.80;;;;;;4995688;28;20171;-87
2023/06/19 02:49:06;;;;;;;6.13;5.63;;;21.40;83.40;;;;;;4996274;28;20676;-87
2023/06/19 02:51:32;;;;;;;6.25;5.75;;;21.60;82.50;;;;;;4995333;28;20246;-85
2023/06/19 02:53:57;;;;;;;6.07;5.65;;;21.70;82.40;;;;;;4993215;28;20228;-86
2023/06/19 02:56:25;;;;;;;6.80;6.05;;;21.70;82.70;;;;;;4993281;28;20217;-86
2023/06/19 02:58:50;;;;;;;6.28;5.88;;;21.80;83.10;;;;;;4995443;28;20178;-85
2023/06/19 03:01:16;;;;;;;7.00;5.95;;;21.90;83.20;;;;;;4994380;28;20224;-86
2023/06/19 03:03:42;;;;;;;6.55;6.00;;;22.00;81.40;;;;;;4993469;28;20198;-85
2023/06/19 03:06:08;;;;;;;6.18;5.70;;;21.80;82.00;;;;;;4994208;28;20312;-85
2023/06/19 03:08:35;;;;;;;6.38;5.97;;;21.70;82.30;;;;;;4983091;28;20191;-86
2023/06/19 03:11:00;;;;;;;6.60;6.10;;;21.80;82.30;;;;;;4990695;28;20190;-85
2023/06/19 03:13:26;;;;;;;6.50;6.10;;;21.70;83.20;;;;;;4993789;28;20265;-86
2023/06/19 03:15:52;;;;;;;6.97;6.47;;;21.60;83.40;;;;;;4995065;28;20636;-86
2023/06/19 03:18:17;;;;;;;6.95;6.45;;;21.50;84.30;;;;;;4994272;28;20175;-85
2023/06/19 03:20:43;;;;;;;7.05;6.45;;;21.40;84.50;;;;;;4994287;28;20197;-85
2023/06/19 03:23:09;;;;;;;7.40;6.90;;;21.50;84.80;;;;;;4991053;28;20236;-85
2023/06/19 03:25:34;;;;;;;6.82;6.28;;;21.60;83.90;;;;;;4990227;28;20752;-85
2023/06/19 03:28:04;;;;;;;7.20;6.70;;;21.50;84.20;;;;;;4988099;28;20969;-86
2023/06/19 03:30:30;;;;;;;7.22;6.72;;;21.30;84.30;;;;;;4988214;28;20224;-85
2023/06/19 03:32:56;;;;;;;7.55;7.05;;;21.40;84.40;;;;;;4987863;28;20200;-84
2023/06/19 03:35:21;;;;;;;7.85;7.25;;;21.40;84.40;;;;;;4988114;28;20232;-85
2023/06/19 03:37:47;;;;;;;7.13;6.53;;;21.50;83.90;;;;;;4989425;28;20174;-85
2023/06/19 03:40:13;;;;;;;7.43;6.93;;;21.60;83.10;;;;;;4993348;28;20433;-83
2023/06/19 03:42:42;;;;;;;7.47;6.88;;;21.70;82.20;;;;;;4996326;28;20205;-84
2023/06/19 03:45:08;;;;;;;7.05;6.55;;;21.70;81.60;;;;;;4996628;28;20254;-83
2023/06/19 03:47:33;;;;;;;7.47;6.88;;;21.80;80.70;;;;;;4998417;28;20183;-84
2023/06/19 03:49:59;;;;;;;6.75;6.25;;;21.70;81.20;;;;;;4998386;28;20185;-84
2023/06/19 03:52:24;;;;;;;6.95;6.45;;;21.70;80.90;;;;;;4999893;28;20325;-84
2023/06/19 03:54:50;;;;;;;7.03;6.53;;;21.90;81.40;;;;;;4998692;28;20229;-82
2023/06/19 03:57:16;;;;;;;6.55;5.93;;;21.90;79.70;;;;;;4996923;28;20171;-84
2023/06/19 03:59:41;;;;;;;6.80;6.40;;;22.00;79.90;;;;;;4996815;28;20185;-84
2023/06/19 04:02:07;;;;;;;7.05;6.45;;;22.10;79.50;;;;;;4996371;28;20198;-82
2023/06/19 04:04:33;;;;;;;7.43;6.85;;;22.10;78.60;;;;;;4996585;28;20233;-83
2023/06/19 04:07:01;;;;;;;6.93;6.53;;;22.10;78.70;;;;;;4991712;28;20206;-85
2023/06/19 04:09:27;;;;;;;7.40;6.78;;;22.00;78.80;;;;;;4972670;28;20194;-85
2023/06/19 04:11:52;;;;;;;7.18;6.68;;;21.80;79.70;;;;;;4972814;28;20194;-85
2023/06/19 04:14:18;;;;;;;6.97;6.43;;;21.80;79.80;;;;;;4970558;28;20183;-86
2023/06/19 04:16:44;;;;;;;7.55;6.95;;;21.70;80.30;;;;;;4982245;28;20201;-85
2023/06/19 04:19:09;;;;;;;6.68;6.28;;;21.70;81.80;;;;;;4989073;28;20190;-85
2023/06/19 04:21:35;;;;;;;7.57;6.97;;;21.70;81.20;;;;;;4984142;28;20187;-84
2023/06/19 04:24:01;;;;;;;7.00;6.50;;;21.70;80.90;;;;;;4969423;28;20191;-85
2023/06/19 04:26:26;;;;;;;6.90;6.30;;;21.80;80.50;;;;;;4982328;28;20186;-86
2023/06/19 04:28:52;;;;;;;7.30;6.80;;;21.70;81.10;;;;;;4974927;28;20274;-85
2023/06/19 04:31:18;;;;;;;7.97;7.18;;;21.70;81.20;;;;;;4986318;28;20183;-84
2023/06/19 04:33:45;;;;;;;8.43;7.72;;;21.70;81.40;;;;;;4973905;28;20210;-86
2023/06/19 04:36:11;;;;;;;8.07;7.38;;;21.50;82.10;;;;;;4994729;28;20202;-83
2023/06/19 04:38:36;;;;;;;8.20;7.60;;;21.50;83.30;;;;;;4994263;28;20193;-85
2023/06/19 04:41:02;;;;;;;8.15;7.47;;;21.40;83.00;;;;;;4993528;28;20186;-86
2023/06/19 04:43:27;;;;;;;7.47;6.97;;;21.50;83.30;;;;;;4993040;28;20194;-85
2023/06/19 04:45:53;;;;;;;7.68;7.07;;;21.50;83.30;;;;;;4993255;28;20264;-85
2023/06/19 04:48:19;;;;;;;7.53;7.03;;;21.50;82.50;;;;;;4993583;28;20184;-85
2023/06/19 04:50:44;;;;;;;7.70;7.00;;;21.50;83.90;;;;;;4992210;28;20235;-85
2023/06/19 04:53:11;;;;;;;7.50;6.93;;;21.50;83.00;;;;;;4991887;28;20671;-86
2023/06/19 04:55:37;;;;;;;7.55;6.82;;;21.60;82.80;;;;;;4992481;28;20206;-84
2023/06/19 04:58:03;;;;;;;7.65;7.05;;;21.60;83.00;;;;;;4992275;28;20294;-85
2023/06/19 05:00:29;;;;;;;7.95;7.20;;;21.60;83.00;;;;;;4990380;28;20243;-85
2023/06/19 05:02:59;;;;;;;7.10;6.57;;;21.50;83.30;;;;;;4983595;28;20220;-86
2023/06/19 05:05:25;;;;;;;7.10;6.57;;;21.50;83.70;;;;;;4999541;28;20187;-84
2023/06/19 05:07:51;;;;;;;7.75;7.15;;;21.50;83.60;;;;;;4997569;28;20182;-86
2023/06/19 05:10:16;;;;;;;7.30;6.70;;;21.50;83.90;;;;;;5001891;28;20679;-84
2023/06/19 05:12:42;;;;;;;7.55;6.88;;;21.50;83.90;;;;;;4990651;28;20681;-84
2023/06/19 05:15:08;;;;;;;6.88;6.35;;;21.60;83.60;;;;;;5000880;28;20205;-85
2023/06/19 05:17:34;;;;;;;7.28;6.68;;;21.60;83.20;;;;;;4976867;28;20190;-83
2023/06/19 05:20:00;;;;;;;7.00;6.47;;;21.60;83.50;;;;;;4970136;28;20181;-85
2023/06/19 05:22:26;;;;;;;7.60;7.03;;;21.60;83.90;;;;;;4989049;28;20782;-85
2023/06/19 05:24:52;;;;;;;7.55;7.05;;;21.60;84.20;;;;;;4971400;28;20182;-87
2023/06/19 05:27:18;;;;;;;6.45;5.88;;;21.60;84.10;;;;;;4976935;28;20187;-86
2023/06/19 05:29:43;;;;;;;7.47;6.95;;;21.60;84.50;;;;;;4991139;28;20188;-84
2023/06/19 05:32:09;;;;;;;6.95;6.45;;;21.70;84.60;;;;;;4991893;28;20213;-87
2023/06/19 05:34:34;;;;;;;7.03;6.50;;;21.70;84.70;;;;;;5000843;28;20225;-87
2023/06/19 05:37:03;;;;;;;7.63;6.93;;;21.80;84.50;;;;;;4994357;28;20265;-86
2023/06/19 05:39:29;;;;;;;7.60;7.10;;;21.90;83.70;;;;;;4977561;28;20205;-86
2023/06/19 05:41:55;;;;;;;7.40;6.80;;;22.10;84.10;;;;;;5003415;28;20201;-86
2023/06/19 05:44:20;;;;;;;7.38;6.88;;;22.20;82.10;;;;;;5002730;28;20225;-86
2023/06/19 05:46:46;;;;;;;7.30;6.70;;;22.10;82.70;;;;;;4986850;28;20199;-85
2023/06/19 05:49:11;;;;;;;6.90;6.38;;;22.20;81.90;;;;;;4982568;28;20757;-85
2023/06/19 05:51:37;;;;;;;7.40;6.90;;;22.20;82.60;;;;;;4985769;28;20224;-85
2023/06/19 05:54:03;;;;;;;7.10;6.60;;;22.30;82.50;;;;;;4986017;28;20201;-85
2023/06/19 05:56:36;;;;;;;8.43;6.43;;;22.30;82.00;;;;;;4978644;28;20218;-84
2023/06/19 05:59:02;;;;;;;7.03;6.53;;;22.40;82.10;;;;;;4981897;28;20195;-85
2023/06/19 06:01:29;;;;;;;6.88;6.43;;;22.40;81.40;;;;;;4980941;28;20214;-86
2023/06/19 06:03:55;;;;;;;7.22;6.70;;;22.40;80.10;;;;;;4986109;28;20229;-89
2023/06/19 06:06:23;;;;;;;6.95;6.47;;;22.30;80.50;;;;;;4971921;28;20298;-86
2023/06/19 06:08:49;;;;;;;7.25;6.75;;;22.40;81.80;;;;;;4978873;28;20193;-85
2023/06/19 06:11:15;;;;;;;6.85;6.40;;;22.30;80.90;;;;;;4979550;28;20189;-87
2023/06/19 06:13:40;;;;;;;7.22;6.72;;;22.40;80.80;;;;;;4975677;28;21066;-86
2023/06/19 06:16:06;;;;;;;7.60;7.00;;;22.40;79.80;;;;;;4972420;28;21116;-87
2023/06/19 06:18:32;;;;;;;6.75;6.28;;;22.50;80.60;;;;;;4976901;28;20213;-85
2023/06/19 06:20:59;;;;;;;7.28;6.70;;;22.70;80.50;;;;;;4975283;28;20190;-86
2023/06/19 06:23:25;;;;;;;6.97;6.50;;;22.80;79.30;;;;;;4975304;28;20218;-86
2023/06/19 06:25:51;;;;;;;7.43;6.70;;;22.90;78.90;;;;;;4975887;28;20178;-86
2023/06/19 06:28:17;;;;;;;6.70;6.20;;;23.00;78.20;;;;;;4978185;28;20221;-87
2023/06/19 06:30:43;;;;;;;6.60;6.20;;;23.00;76.30;;;;;;4978813;28;20191;-86
2023/06/19 06:33:09;;;;;;;6.30;5.90;;;23.00;77.00;;;;;;4982200;28;20229;-87
2023/06/19 06:35:35;;;;;;;6.30;5.90;;;23.10;76.20;;;;;;4976969;28;20210;-86
2023/06/19 06:38:04;;;;;;;6.30;5.90;;;23.00;75.60;;;;;;4978284;28;20194;-88
2023/06/19 06:40:30;;;;;;;6.32;5.93;;;23.20;75.50;;;;;;4981427;28;20197;-86
2023/06/19 06:42:56;;;;;;;6.22;5.82;;;23.30;75.40;;;;;;4979480;28;20199;-87
2023/06/19 06:45:21;;;;;;;6.32;5.75;;;23.40;73.70;;;;;;4973898;28;20655;-87
2023/06/19 06:47:47;;;;;;;6.15;5.60;;;23.50;72.90;;;;;;4980652;28;20205;-89
2023/06/19 06:50:15;;;;;;;5.97;5.47;;;23.60;72.00;;;;;;4981763;28;20213;-87
2023/06/19 06:52:41;;;;;;;6.03;5.63;;;23.60;72.40;;;;;;4977616;28;20364;-87
2023/06/19 06:55:07;;;;;;;6.25;5.85;;;23.50;71.70;;;;;;4975397;28;20226;-88
2023/06/19 06:57:32;;;;;;;6.15;5.70;;;23.50;71.30;;;;;;4977295;28;20223;-86
2023/06/19 06:59:58;;;;;;;5.53;5.22;;;23.70;71.50;;;;;;4974071;28;20194;-87
2023/06/19 07:02:24;;;;;;;6.82;6.25;;;23.80;70.80;;;;;;4977358;28;20217;-85
2023/06/19 07:04:50;;;;;;;5.85;5.45;;;23.80;69.80;;;;;;4978759;28;20726;-86
2023/06/19 07:07:15;;;;;;;6.15;5.75;;;23.80;70.40;;;;;;4977292;28;20178;-86
2023/06/19 07:09:41;;;;;;;5.80;5.40;;;23.60;69.50;;;;;;4974673;28;20280;-86
2023/06/19 07:12:07;;;;;;;6.25;5.85;;;23.80;69.80;;;;;;4977688;28;20229;-87
2023/06/19 07:14:33;;;;;;;6.15;5.75;;;24.00;69.40;;;;;;4977477;28;20190;-88
2023/06/19 07:16:59;;;;;;;6.53;5.97;;;23.90;68.60;;;;;;4968069;28;20186;-86
2023/06/19 07:19:24;;;;;;;6.60;6.10;;;23.80;68.20;;;;;;4977938;28;20186;-87
2023/06/19 07:21:51;;;;;;;6.60;6.07;;;23.70;69.90;;;;;;4980588;28;20587;-88
2023/06/19 07:24:16;;;;;;;6.55;6.10;;;23.70;70.20;;;;;;4975896;28;20198;-87
2023/06/19 07:26:42;;;;;;;6.72;6.13;;;23.50;69.70;;;;;;4974841;28;20193;-86
2023/06/19 07:29:08;;;;;;;6.75;6.20;;;23.40;70.90;;;;;;4979934;28;20190;-86
2023/06/19 07:31:33;;;;;;;6.78;6.28;;;23.50;71.30;;;;;;4979084;28;20950;-86
2023/06/19 07:33:59;;;;;;;6.40;6.00;;;23.40;71.70;;;;;;4976919;28;20198;-86
2023/06/19 07:36:25;;;;;;;6.70;6.20;;;23.40;71.90;;;;;;4976611;28;20288;-86
2023/06/19 07:38:52;;;;;;;6.95;6.45;;;23.50;71.90;;;;;;4979284;28;20229;-86
2023/06/19 07:41:18;;;;;;;7.28;6.68;;;23.60;72.10;;;;;;4978368;28;20171;-86
2023/06/19 07:43:43;;;;;;;7.05;6.65;;;23.80;71.40;;;;;;4976111;28;20276;-86
2023/06/19 07:46:10;;;;;;;7.43;6.85;;;23.90;71.00;;;;;;4974454;28;20298;-87
2023/06/19 07:48:35;;;;;;;6.70;6.30;;;24.10;72.30;;;;;;4976261;28;20193;-87
2023/06/19 07:51:01;;;;;;;7.82;7.22;;;24.20;71.20;;;;;;4980947;28;20273;-86
2023/06/19 07:53:27;;;;;;;7.68;7.18;;;24.30;68.70;;;;;;4980191;28;20686;-86
2023/06/19 07:55:52;;;;;;;8.18;7.45;;;24.30;69.60;;;;;;4971051;28;20214;-86
2023/06/19 07:58:18;;;;;;;7.53;6.88;;;24.50;70.60;;;;;;4978384;28;20280;-87
2023/06/19 08:00:44;;;;;;;7.50;6.90;;;24.60;70.90;;;;;;4978313;28;20329;-87
2023/06/19 08:03:10;;;;;;;7.78;7.28;;;24.90;69.90;;;;;;4972972;28;20237;-85
2023/06/19 08:05:38;;;;;;;7.22;6.72;;;24.90;68.40;;;;;;4979334;28;20205;-88
2023/06/19 08:08:04;;;;;;;7.90;7.20;;;24.90;68.60;;;;;;4979749;28;20186;-87
2023/06/19 08:10:30;;;;;;;7.55;7.05;;;25.00;68.20;;;;;;4980990;28;20254;-87
2023/06/19 08:12:56;;;;;;;8.02;7.53;;;25.00;69.20;;;;;;4982654;28;20253;-88
2023/06/19 08:15:21;;;;;;;8.55;7.85;;;25.00;69.70;;;;;;4980622;28;20198;-88
2023/06/19 08:17:47;;;;;;;8.20;7.65;;;25.10;69.00;;;;;;4980923;28;20192;-87
2023/06/19 08:20:13;;;;;;;8.70;8.10;;;24.90;68.50;;;;;;4981431;28;20194;-89
2023/06/19 08:22:40;;;;;;;8.93;8.23;;;25.10;68.80;;;;;;4984416;28;20549;-87
2023/06/19 08:25:06;;;;;;;7.75;7.25;;;25.10;67.70;;;;;;4983297;28;20690;-87
2023/06/19 08:27:32;;;;;;;8.55;7.88;;;25.40;66.70;;;;;;4980096;28;20222;-88
2023/06/19 08:29:57;;;;;;;7.90;7.40;;;25.60;66.60;;;;;;4991309;28;20197;-87
2023/06/19 08:32:23;;;;;;;8.40;7.63;;;25.60;66.90;;;;;;4987467;28;20202;-87
2023/06/19 08:34:49;;;;;;;8.13;7.53;;;25.60;66.20;;;;;;4980848;28;20225;-87
2023/06/19 08:37:14;;;;;;;8.50;7.90;;;25.70;65.10;;;;;;4981664;28;20273;-87
2023/06/19 08:39:40;;;;;;;8.50;7.80;;;25.90;64.70;;;;;;4985148;28;20648;-88
2023/06/19 08:42:07;;;;;;;7.45;7.05;;;26.10;64.30;;;;;;4979469;28;20209;-86
2023/06/19 08:44:34;;;;;;;7.97;7.47;;;25.90;62.60;;;;;;4982780;28;20200;-87
2023/06/19 08:47:01;;;;;;;8.52;7.93;;;26.00;64.00;;;;;;4979475;28;20260;-87
2023/06/19 08:49:30;;;;;;;8.93;8.43;;;26.20;63.80;;;;;;4981552;28;20200;-87
2023/06/19 08:51:55;;;;;;;8.25;7.75;;;26.40;61.00;;;;;;4982019;28;20214;-87
2023/06/19 08:54:21;;;;;;;9.30;8.70;;;26.50;61.30;;;;;;4982343;28;20229;-88
2023/06/19 08:56:47;;;;;;;8.70;7.97;;;26.50;61.70;;;;;;4976278;28;20225;-87
2023/06/19 08:59:15;;;;;;;8.77;8.27;;;26.70;61.50;;;;;;4990409;28;20174;-89
2023/06/19 09:01:51;;;;;;;9.07;8.40;;;26.80;59.90;;;;;;4987691;28;20190;-88
2023/06/19 09:04:19;;;;;;;9.35;8.75;;;27.00;59.70;;;;;;4984610;28;20174;-87
2023/06/19 09:06:51;;;;;;;9.85;9.20;;;27.00;59.80;;;;;;4977397;28;20195;-88
2023/06/19 09:09:20;;;;;;;10.15;9.32;;;26.90;59.60;;;;;;4977687;28;20198;-86
2023/06/19 09:12:06;;;;;;;9.43;8.82;;;27.10;61.20;;;;;;4986403;28;20193;-87
2023/06/19 09:14:42;;;;;;;10.70;9.90;;;27.40;60.50;;;;;;4984931;28;20308;-87
2023/06/19 09:17:13;;;;;;;10.02;9.43;;;27.40;59.70;;;;;;4983382;28;20232;-88
2023/06/19 09:19:47;;;;;;;11.10;10.25;;;27.60;59.60;;;;;;4983691;28;20321;-88
2023/06/19 09:22:13;;;;;;;10.82;10.10;;;27.70;59.30;;;;;;4985810;28;21719;-88
2023/06/19 09:24:41;;;;;;;10.32;9.73;;;27.90;57.40;;;;;;4988038;28;20238;-87
2023/06/19 09:27:24;;;;;;;11.57;10.68;;;27.90;57.60;;;;;;4983380;28;20187;-88
2023/06/19 09:29:50;;;;;;;9.30;8.70;;;28.00;57.20;;;;;;4983821;28;20196;-88
2023/06/19 09:32:23;;;;;;;10.55;9.75;;;28.00;58.10;;;;;;4984133;28;20244;-88
2023/06/19 09:34:51;;;;;;;11.40;10.60;;;28.00;56.10;;;;;;4985504;28;20314;-87
2023/06/19 09:37:24;;;;;;;10.75;10.05;;;28.00;55.80;;;;;;4983347;28;20171;-87
2023/06/19 09:39:57;;;;;;;9.88;9.27;;;27.90;56.90;;;;;;4984798;28;20217;-87
2023/06/19 09:42:33;;;;;;;10.82;10.23;;;28.10;56.90;;;;;;4984342;28;20216;-87
2023/06/19 09:45:23;;;;;;;10.38;9.82;;;28.40;54.90;;;;;;4987261;28;20190;-87
2023/06/19 09:47:53;;;;;;;11.75;11.00;;;28.60;54.70;;;;;;4986975;28;20186;-87
2023/06/19 09:50:22;;;;;;;10.50;9.90;;;28.70;53.70;;;;;;4988978;28;20295;-87
2023/06/19 09:52:51;;;;;;;11.00;10.30;;;28.70;54.30;;;;;;4981151;28;20214;-88
2023/06/19 09:55:18;;;;;;;11.38;10.73;;;28.90;53.40;;;;;;4979851;28;20195;-87
2023/06/19 09:57:45;;;;;;;12.27;11.57;;;28.90;53.40;;;;;;4984206;28;20192;-87
2023/06/19 10:00:15;;;;;;;11.95;11.15;;;28.90;53.70;;;;;;4983368;28;20184;-90
2023/06/19 10:02:42;;;;;;;12.15;11.23;;;28.90;53.30;;;;;;4981576;28;20198;-88
2023/06/19 10:05:11;;;;;;;11.65;10.90;;;29.00;54.00;;;;;;4981592;28;20275;-87
2023/06/19 10:07:37;;;;;;;11.13;10.50;;;28.80;53.60;;;;;;4979622;28;20697;-88
2023/06/19 10:10:06;;;;;;;11.63;10.93;;;28.60;54.20;;;;;;4980032;28;20488;-87
2023/06/19 10:12:43;;;;;;;11.23;10.63;;;28.50;54.90;;;;;;4984023;28;20214;-85
2023/06/19 10:15:29;;;;;;;11.45;10.85;;;28.30;54.90;;;;;;4984833;28;20201;-91
2023/06/19 10:18:05;;;;;;;12.32;11.45;;;28.50;54.40;;;;;;4988840;28;20174;-87
2023/06/19 10:20:38;;;;;;;11.23;10.40;;;28.60;54.10;;;;;;4990282;28;20269;-87
2023/06/19 10:23:21;;;;;;;12.05;11.23;;;28.70;53.90;;;;;;4987276;28;20225;-87
2023/06/19 10:26:03;;;;;;;11.38;10.68;;;28.90;53.70;;;;;;4986625;28;20178;-94
2023/06/19 10:28:31;;;;;;;11.73;10.98;;;29.50;52.00;;;;;;4993327;28;20190;-92
2023/06/19 10:31:05;;;;;;;12.15;11.43;;;29.90;50.70;;;;;;4993396;28;20634;-90
2023/06/19 10:33:34;;;;;;;12.13;11.32;;;30.00;49.90;;;;;;4993380;28;20220;-91
2023/06/19 10:36:02;;;;;;;11.57;10.98;;;29.80;49.90;;;;;;4991289;28;20225;-90
2023/06/19 10:38:31;;;;;;;11.38;10.77;;;29.80;49.60;;;;;;4996134;28;20187;-91
2023/06/19 10:40:58;;;;;;;12.05;11.32;;;29.60;48.60;;;;;;4993725;28;20183;-89
2023/06/19 10:43:30;;;;;;;12.13;11.30;;;29.40;52.20;;;;;;4990417;28;20206;-91
2023/06/19 10:45:57;;;;;;;12.02;11.30;;;29.60;50.40;;;;;;4986660;28;20224;-90
2023/06/19 10:48:26;;;;;;;12.05;11.20;;;30.00;49.40;;;;;;4992316;28;20185;-91
2023/06/19 10:50:52;;;;;;;11.70;11.10;;;29.60;50.90;;;;;;4992138;28;20229;-90
2023/06/19 10:53:31;;;;;;;12.07;11.38;;;29.80;50.50;;;;;;4986717;28;20210;-89
2023/06/19 10:56:04;;;;;;;12.45;11.75;;;30.20;48.70;;;;;;4978084;28;20202;-90
2023/06/19 10:58:45;;;;;;;12.10;11.40;;;30.50;48.20;;;;;;4981046;28;20313;-90
2023/06/19 11:01:11;;;;;;;11.63;10.93;;;30.60;47.70;;;;;;4984056;28;20312;-89
2023/06/19 11:03:37;;;;;;;12.02;11.27;;;30.80;46.60;;;;;;4985270;28;20502;-90
2023/06/19 11:06:04;;;;;;;12.07;11.35;;;31.00;45.60;;;;;;4981138;28;20253;-87
2023/06/19 11:08:29;;;;;;;12.05;11.05;;;31.10;47.00;;;;;;4985032;28;20225;-88
2023/06/19 11:10:55;;;;;;;11.50;10.85;;;31.40;45.10;;;;;;4984024;28;20178;-88
2023/06/19 11:13:26;;;;;;;12.85;12.10;;;31.50;44.70;;;;;;4982303;28;20534;-87
2023/06/19 11:15:52;;;;;;;13.32;12.63;;;31.70;44.60;;;;;;4979900;28;20293;-85
2023/06/19 11:18:18;;;;;;;11.88;11.27;;;31.70;43.80;;;;;;4984901;28;20202;-87
2023/06/19 11:20:50;;;;;;;12.68;11.88;;;31.30;44.50;;;;;;4983860;28;20186;-87
2023/06/19 11:23:28;;;;;;;11.95;11.35;;;30.80;45.20;;;;;;4980988;28;20218;-87
2023/06/19 11:26:01;;;;;;;13.02;12.07;;;31.00;46.40;;;;;;4977365;28;20309;-86
2023/06/19 11:28:29;;;;;;;11.90;11.30;;;30.90;44.90;;;;;;4984257;28;20582;-87
2023/06/19 11:31:03;;;;;;;11.90;11.30;;;31.10;47.40;;;;;;4983136;28;20194;-87
2023/06/19 11:33:30;;;;;;;11.60;10.90;;;30.90;45.40;;;;;;4981552;28;20216;-88
2023/06/19 11:36:00;;;;;;;11.82;11.23;;;30.80;46.40;;;;;;4981298;28;20213;-87
2023/06/19 11:38:29;;;;;;;11.75;11.15;;;30.80;45.60;;;;;;4985600;28;20174;-87
2023/06/19 11:40:57;;;;;;;11.25;10.65;;;31.10;46.20;;;;;;4980309;28;20193;-89
2023/06/19 11:43:30;;;;;;;12.18;11.48;;;31.60;44.30;;;;;;4977242;28;20371;-86
2023/06/19 11:46:32;;;;;;;12.45;11.65;;;31.80;42.50;;;;;;4974864;28;20201;-89
2023/06/19 11:49:10;;;;;;;14.27;13.15;;;32.20;42.80;;;;;;4969919;28;20208;-88
2023/06/19 11:51:37;;;;;;;15.80;15.00;;;32.70;41.20;;;;;;4977801;28;20210;-88
2023/06/19 11:54:08;;;;;;;16.17;15.48;;;33.00;39.20;;;;;;4975947;28;20186;-87
2023/06/19 11:56:36;;;;;;;15.20;14.50;;;33.00;39.50;;;;;;4969335;28;20206;-90
2023/06/19 11:59:05;;;;;;;15.82;15.02;;;32.60;39.80;;;;;;4976904;28;20929;-90
2023/06/19 12:01:36;;;;;;;16.55;15.75;;;32.70;39.70;;;;;;4991958;28;20189;-89
2023/06/19 12:04:03;;;;;;;16.70;15.90;;;33.00;39.10;;;;;;4986713;28;20277;-90
2023/06/19 12:06:35;;;;;;;18.30;17.40;;;33.40;38.70;;;;;;4983315;28;20240;-91
2023/06/19 12:09:01;;;;;;;18.55;17.65;;;33.20;39.00;;;;;;4992077;28;20246;-88
2023/06/19 12:11:27;;;;;;;19.90;19.00;;;32.90;39.30;;;;;;4986031;28;20179;-89
2023/06/19 12:13:57;;;;;;;17.95;17.15;;;32.70;39.60;;;;;;4981135;28;20209;-89
2023/06/19 12:16:23;;;;;;;17.33;16.42;;;32.70;39.80;;;;;;4989745;28;20217;-87
2023/06/19 12:18:50;;;;;;;18.75;17.95;;;32.90;39.10;;;;;;4981906;28;20627;-87
2023/06/19 12:21:15;;;;;;;19.63;18.70;;;33.00;39.50;;;;;;4977661;28;20201;-86
2023/06/19 12:23:41;;;;;;;18.88;17.98;;;33.10;39.30;;;;;;4978854;28;20289;-87
2023/06/19 12:26:07;;;;;;;19.00;18.20;;;33.20;39.00;;;;;;4973265;28;20691;-87
2023/06/19 12:28:34;;;;;;;20.08;19.17;;;32.90;39.30;;;;;;4975833;28;20190;-88
2023/06/19 12:31:00;;;;;;;18.80;17.90;;;32.80;39.40;;;;;;4978049;28;20195;-87
2023/06/19 12:33:28;;;;;;;19.98;19.05;;;32.80;39.20;;;;;;4978285;28;20199;-87
2023/06/19 12:35:54;;;;;;;20.48;19.58;;;33.20;38.50;;;;;;4977783;28;20260;-90
2023/06/19 12:38:20;;;;;;;21.65;20.75;;;33.60;37.50;;;;;;4978835;28;20186;-90
2023/06/19 12:40:46;;;;;;;23.88;22.67;;;33.70;36.60;;;;;;4982481;28;20597;-92
2023/06/19 12:43:11;;;;;;;22.80;21.85;;;33.80;35.90;;;;;;4980385;28;20210;-88